AirNav   Pilot Hours Calculator
 
 1514 users online  

25CO Crystal Lakes Airport
Red Feather Lakes, Colorado, USA

GOING TO RED FEATHER LAKES?


FAA INFORMATION EFFECTIVE 25 MARCH 2021

Location

FAA Identifier: 25CO
Lat/Long: 40-51-05.9300N 105-37-58.9800W
40-51.098833N 105-37.983000W
40.8516472,-105.6330500
(estimated)
Elevation: 8440 ft. / 2573 m (estimated)
Variation: 11E (1995)
From city: 4 miles NW of RED FEATHER LAKES, CO
Time zone: UTC -6 (UTC -7 during Standard Time)
Zip code: 80545

Airport Operations

Airport use: Private use. Permission required prior to landing
Activation date: 03/2000
Control tower: no
ARTCC: DENVER CENTER
FSS: DENVER FLIGHT SERVICE STATION
Attendance: UNATNDD
Wind indicator: yes
Segmented circle: no

Nearby radio navigation aids

VOR radial/distance  VOR name  Freq  Var
LARr158/29.4LARAMIE VOR/DME117.6014E

Airport Services

Runway Information

Runway 7/25

Dimensions: 4225 x 40 ft. / 1288 x 12 m
Surface: dirt
RUNWAY 7  RUNWAY 25
Traffic pattern: leftleft
Obstructions: 80 ft. gnd, 2000 ft. from runway200 ft. gnd, 2000 ft. from runway

Airport Ownership and Management from official FAA records

Ownership: Privately-owned
Owner: HANKS FLYING SERVICE, INC
95 MARMOT DRIVE
RED FEATHER, CO 80545
Phone 337-501-8501
Manager: CARLAN HANKS
95 MARMOT DRIVE
RED FEATHER, CO 80545
Phone 337-501-8501

Additional Remarks

FOR CD CTC DENVER ARTCC AT 303-651-4257.

Instrument Procedures

There are no published instrument procedures at 25CO.

Some nearby airports with instrument procedures:

KLAR - Laramie Regional Airport (28 nm N)
33V - Walden-Jackson County Airport (30 nm W)
KFNL - Northern Colorado Regional Airport (37 nm SE)
KCYS - Cheyenne Regional Airport/Jerry Olson Field (41 nm NE)
KLMO - Vance Brand Airport (46 nm SE)
 
Loc | Ops | Rwys | IFR | FBO | Links
Com | Nav | Svcs | Stats | Notes

AirBoss

 
Area around 25CO (Crystal Lakes Airport)
 
Road maps at: MapQuest Bing Google
 
Aerial photo
WARNING: Photo may not be current or correct
Aerial photo of 25CO (Crystal Lakes Airport)
Photo by Todd Suko
Photo taken 19-Aug-2007

Do you have a better or more recent aerial photo of Crystal Lakes Airport that you would like to share? If so, please send us your photo.

 
Sectional chart

 
Airport distance calculator
Flying to Crystal Lakes Airport? Find the distance to fly.

From to 25CO

Sunrise and sunset
Times for 16-Apr-2021
 Local
(UTC-6)
 Zulu
(UTC)
Morning civil twilight05:5411:54
Sunrise06:2312:23
Sunset19:4201:42
Evening civil twilight20:1002:10

Current date and time
Zulu (UTC)  16-Apr-2021 20:06:23
Local (UTC-6)  16-Apr-2021 14:06:23
 
METAR
KLAR 
28nm N 
161953Z AUTO 35008KT 4SM HZ FEW012 BKN041 OVC049 M04/M07 A3013 RMK AO2 SLP234 P0000 T10391072
K33V 
29nm W 
161955Z AUTO 32011KT 10SM SCT022 SCT036 M01/M08 A3010 RMK AO2 T10131077
KFNL 
37nm SE 
161956Z 02011KT 10SM FEW027 BKN041 OVC050 04/M02 A3017 RMK AO2 SLP230 P0001 T00391022
KFEW 
39nm NE 
161858Z 35011KT 4SM BR BKN013 M02/M04 A3016 RMK AO2A SHSNB58E36 SLP255 P0000 T10181041 $
KCYS 
41nm NE 
161953Z 36015G21KT 9SM BKN014 BKN021 OVC028 M01/M04 A3014 RMK AO2 UPB1855E10B24E43 SLP246 P0000 T10111044
TAF
KLAR 
28nm N 
161720Z 1618/1718 36009KT 2SM -SN BR OVC025 FM170100 35008KT 6SM BR VCSH OVC020 FM170600 33006KT 4SM BR VCSH OVC007 FM171400 35007KT 6SM BR BKN050
NOTAMs
Click for the latest NOTAMs
NOTAMs are issued by the DoD/FAA and will open in a separate window not controlled by AirNav.

 

 
 

Would you like to see your business listed on this page?

 If your business provides an interesting product or service to pilots, flight crews, aircraft, or users of the Crystal Lakes Airport, you should consider listing it here.  To start the listing process, click on the button below
 
Add a business
 

Other Pages about Crystal Lakes Airport

Update a link
 
Copyright © AirNav, LLC. All rights reserved. Privacy Policy  Contact